createdAt,value
2018-03-25T00:00:53.813Z,0.50
2018-03-25T00:03:22.227Z,0.40
2018-03-25T00:05:51.317Z,0.60
2018-03-25T00:08:19.711Z,0.57
2018-03-25T00:10:50.886Z,0.47
2018-03-25T00:13:18.850Z,0.50
2018-03-25T00:15:46.490Z,0.50
2018-03-25T00:18:14.087Z,0.60
2018-03-25T00:20:43.076Z,0.60
2018-03-25T00:23:11.345Z,0.60
2018-03-25T00:25:41.556Z,0.50
2018-03-25T00:28:10.814Z,0.57
2018-03-25T00:30:41.724Z,0.50
2018-03-25T00:33:10.135Z,0.43
2018-03-25T00:35:39.358Z,0.40
2018-03-25T00:38:09.210Z,0.40
2018-03-25T00:40:38.503Z,0.50
2018-03-25T00:43:08.481Z,0.60
2018-03-25T00:45:38.297Z,0.60
2018-03-25T00:48:07.696Z,0.57
2018-03-25T00:50:37.095Z,0.57
2018-03-25T00:53:07.064Z,0.50
2018-03-25T00:55:36.056Z,0.43
2018-03-25T00:58:04.891Z,0.40
2018-03-25T01:00:32.613Z,0.60
2018-03-25T01:03:01.034Z,0.60
2018-03-25T01:05:28.908Z,0.57
2018-03-25T01:07:58.567Z,0.60
2018-03-25T01:10:28.280Z,0.57
2018-03-25T01:12:57.546Z,0.40
2018-03-25T01:15:28.198Z,0.63
2018-03-25T01:17:57.228Z,0.57
2018-03-25T01:20:26.559Z,0.40
2018-03-25T01:22:55.927Z,0.70
2018-03-25T01:25:23.695Z,0.60
2018-03-25T01:27:53.297Z,0.67
2018-03-25T01:30:20.950Z,0.60
2018-03-25T01:32:49.946Z,0.43
2018-03-25T01:35:19.250Z,0.50
2018-03-25T01:37:48.651Z,0.40
2018-03-25T01:40:17.236Z,0.70
2018-03-25T01:42:46.217Z,0.50
2018-03-25T01:45:15.005Z,0.80
2018-03-25T01:47:44.678Z,0.60
2018-03-25T01:50:13.098Z,0.40
2018-03-25T01:52:41.500Z,0.60
2018-03-25T01:55:10.119Z,0.50
2018-03-25T01:57:38.059Z,0.70
2018-03-25T02:00:05.714Z,0.40
2018-03-25T02:02:33.408Z,0.50
2018-03-25T02:05:01.008Z,0.50
2018-03-25T02:07:29.494Z,0.40
2018-03-25T02:09:57.171Z,0.43
2018-03-25T02:12:24.766Z,0.50
2018-03-25T02:14:52.370Z,0.50
2018-03-25T02:17:19.961Z,0.50
2018-03-25T02:19:48.416Z,0.60
2018-03-25T02:22:16.078Z,0.60
2018-03-25T02:24:43.697Z,0.80
2018-03-25T02:27:11.336Z,0.60
2018-03-25T02:29:39.719Z,0.47
2018-03-25T02:32:08.081Z,0.60
2018-03-25T02:34:36.436Z,0.60
2018-03-25T02:37:04.865Z,0.77
2018-03-25T02:39:32.470Z,0.60
2018-03-25T02:42:00.088Z,0.50
2018-03-25T02:44:27.699Z,0.57
2018-03-25T02:46:55.278Z,0.40
2018-03-25T02:49:22.925Z,0.50
2018-03-25T02:51:50.488Z,0.50
2018-03-25T02:54:18.817Z,0.60
2018-03-25T02:56:46.376Z,0.70
2018-03-25T02:59:14.004Z,0.60
2018-03-25T03:01:41.710Z,0.60
2018-03-25T03:04:09.307Z,0.60
2018-03-25T03:06:38.380Z,0.70
2018-03-25T03:09:05.991Z,0.60
2018-03-25T03:11:33.560Z,0.60
2018-03-25T03:14:01.145Z,0.60
2018-03-25T03:16:28.823Z,0.50
2018-03-25T03:18:57.175Z,0.57
2018-03-25T03:21:24.741Z,0.50
2018-03-25T03:23:52.380Z,0.60
2018-03-25T03:26:20.003Z,0.70
2018-03-25T03:28:47.615Z,0.60
2018-03-25T03:31:16.033Z,0.60
2018-03-25T03:33:44.584Z,0.70
2018-03-25T03:36:12.169Z,0.67
2018-03-25T03:38:40.566Z,0.70
2018-03-25T03:41:08.150Z,0.60
2018-03-25T03:43:35.782Z,0.70
2018-03-25T03:46:03.377Z,0.70
2018-03-25T03:48:30.989Z,0.50
2018-03-25T03:50:58.587Z,0.70
2018-03-25T03:53:26.180Z,0.60
2018-03-25T03:55:53.774Z,0.57
2018-03-25T03:58:21.348Z,0.83
2018-03-25T04:00:48.924Z,0.67
2018-03-25T04:03:16.642Z,0.50
2018-03-25T04:05:44.217Z,0.77
2018-03-25T04:08:11.784Z,0.70
2018-03-25T04:10:39.368Z,0.73
2018-03-25T04:13:06.950Z,0.70
2018-03-25T04:15:34.530Z,0.57
2018-03-25T04:18:02.124Z,0.67
2018-03-25T04:20:29.692Z,0.70
2018-03-25T04:22:57.272Z,0.60
2018-03-25T04:25:24.894Z,0.70
2018-03-25T04:27:52.482Z,0.77
2018-03-25T04:30:20.676Z,0.60
2018-03-25T04:32:49.025Z,0.80
2018-03-25T04:35:16.675Z,0.70
2018-03-25T04:37:44.464Z,0.70
2018-03-25T04:40:12.241Z,0.70
2018-03-25T04:42:40.599Z,0.70
2018-03-25T04:45:08.251Z,0.70
2018-03-25T04:47:36.021Z,0.50
2018-03-25T04:50:03.641Z,0.67
2018-03-25T04:52:31.215Z,0.70
2018-03-25T04:54:58.892Z,0.50
2018-03-25T04:57:26.494Z,0.60
2018-03-25T04:59:54.269Z,0.77
2018-03-25T05:02:21.921Z,1.07
2018-03-25T05:04:49.625Z,0.80
2018-03-25T05:07:17.304Z,0.60
2018-03-25T05:09:44.932Z,0.60
2018-03-25T05:12:12.542Z,0.67
2018-03-25T05:14:40.936Z,0.80
2018-03-25T05:17:08.649Z,0.83
2018-03-25T05:19:36.291Z,0.80
2018-03-25T05:22:04.774Z,0.80
2018-03-25T05:24:32.492Z,0.70
2018-03-25T05:30:16.808Z,0.70
2018-03-25T05:32:44.439Z,0.73
2018-03-25T05:35:12.180Z,0.63
2018-03-25T05:37:41.241Z,0.70
2018-03-25T05:40:08.853Z,0.80
2018-03-25T05:42:36.611Z,0.63
2018-03-25T05:45:04.224Z,0.70
2018-03-25T05:47:31.845Z,0.80
2018-03-25T05:50:00.465Z,0.87
2018-03-25T05:52:28.140Z,0.70
2018-03-25T05:54:56.475Z,0.60
2018-03-25T05:57:24.098Z,0.90
2018-03-25T05:59:51.783Z,0.70
2018-03-25T06:02:20.201Z,0.70
2018-03-25T06:04:47.895Z,0.80
2018-03-25T06:07:16.276Z,0.70
2018-03-25T06:09:44.688Z,0.70
2018-03-25T06:12:12.314Z,0.70
2018-03-25T06:14:40.705Z,0.80
2018-03-25T06:17:08.296Z,0.40
2018-03-25T06:19:35.871Z,0.60
2018-03-25T06:22:04.292Z,0.70
2018-03-25T06:24:31.985Z,0.70
2018-03-25T06:27:00.588Z,0.60
2018-03-25T06:29:28.233Z,0.73
2018-03-25T06:31:55.838Z,0.60
2018-03-25T06:34:23.512Z,0.40
2018-03-25T06:36:51.172Z,0.60
2018-03-25T06:39:19.334Z,0.33
2018-03-25T06:41:47.020Z,0.57
2018-03-25T06:44:14.640Z,0.50
2018-03-25T06:46:43.162Z,0.67
2018-03-25T06:49:10.795Z,0.50
2018-03-25T06:51:39.267Z,0.40
2018-03-25T06:54:07.762Z,0.57
2018-03-25T06:56:35.423Z,0.40
2018-03-25T06:59:02.984Z,0.50
2018-03-25T07:01:30.662Z,0.50
2018-03-25T07:03:58.373Z,0.40
2018-03-25T07:06:26.109Z,0.60
2018-03-25T07:08:54.501Z,0.50
2018-03-25T07:11:22.168Z,0.60
2018-03-25T07:13:51.955Z,0.37
2018-03-25T07:16:19.604Z,0.33
2018-03-25T07:18:47.239Z,0.50
2018-03-25T07:21:15.660Z,0.30
2018-03-25T07:23:43.281Z,0.70
2018-03-25T07:26:11.033Z,0.40
2018-03-25T07:28:38.877Z,0.67
2018-03-25T07:31:07.648Z,0.50
2018-03-25T07:33:35.366Z,0.47
2018-03-25T07:36:03.056Z,0.40
2018-03-25T07:38:31.937Z,0.40
2018-03-25T07:40:59.704Z,0.60
2018-03-25T07:43:28.209Z,0.53
2018-03-25T07:45:56.588Z,0.47
2018-03-25T07:48:24.988Z,0.50
2018-03-25T07:50:54.546Z,0.60
2018-03-25T07:53:23.347Z,0.50
2018-03-25T07:55:51.262Z,0.60
2018-03-25T07:58:18.912Z,0.50
2018-03-25T08:00:46.564Z,0.50
2018-03-25T08:03:14.130Z,0.50
2018-03-25T08:05:41.746Z,0.50
2018-03-25T08:08:09.484Z,0.50
2018-03-25T08:10:37.187Z,0.40
2018-03-25T08:13:05.567Z,0.60
2018-03-25T08:15:33.931Z,0.50
2018-03-25T08:18:02.325Z,0.57
2018-03-25T08:20:31.989Z,0.50
2018-03-25T08:22:59.695Z,0.53
2018-03-25T08:25:28.104Z,0.40
2018-03-25T08:27:55.712Z,0.50
2018-03-25T08:30:24.184Z,0.50
2018-03-25T08:32:51.777Z,0.50
2018-03-25T08:35:19.437Z,0.63
2018-03-25T08:37:47.058Z,0.30
2018-03-25T08:40:14.723Z,0.57
2018-03-25T08:42:42.388Z,0.30
2018-03-25T08:45:10.744Z,0.60
2018-03-25T08:47:38.370Z,0.50
2018-03-25T08:50:06.000Z,0.50
2018-03-25T08:52:33.720Z,0.50
2018-03-25T08:55:01.317Z,0.50
2018-03-25T08:57:28.968Z,0.40
2018-03-25T08:59:57.340Z,0.60
2018-03-25T09:02:25.812Z,0.40
2018-03-25T09:04:53.389Z,0.47
2018-03-25T09:07:20.999Z,0.60
2018-03-25T09:09:48.576Z,0.40
2018-03-25T09:12:16.910Z,0.67
2018-03-25T09:14:44.514Z,0.47
2018-03-25T09:17:12.208Z,0.53
2018-03-25T09:19:40.567Z,0.30
2018-03-25T09:22:09.096Z,0.60
2018-03-25T09:24:36.690Z,0.57
2018-03-25T09:27:04.348Z,0.70
2018-03-25T09:29:32.725Z,0.50
2018-03-25T09:32:01.233Z,0.50
2018-03-25T09:34:29.767Z,0.50
2018-03-25T09:36:57.358Z,0.50
2018-03-25T09:39:25.774Z,0.53
2018-03-25T09:41:53.373Z,0.70
2018-03-25T09:44:20.970Z,0.60
2018-03-25T09:46:49.419Z,0.60
2018-03-25T09:49:17.036Z,0.60
2018-03-25T09:51:44.631Z,0.50
2018-03-25T09:54:12.240Z,0.40
2018-03-25T09:56:39.813Z,0.40
2018-03-25T09:59:07.490Z,0.50
2018-03-25T10:01:35.178Z,0.60
2018-03-25T10:04:02.771Z,0.40
2018-03-25T10:06:30.482Z,0.40
2018-03-25T10:08:59.324Z,0.70
2018-03-25T10:11:26.986Z,0.47
2018-03-25T10:13:54.611Z,0.50
2018-03-25T10:16:22.200Z,0.63
2018-03-25T10:18:50.838Z,0.40
2018-03-25T10:21:18.540Z,0.50
2018-03-25T10:23:46.123Z,0.33
2018-03-25T10:26:13.745Z,0.50
2018-03-25T10:28:42.094Z,0.50
2018-03-25T10:31:09.695Z,0.50
2018-03-25T10:33:38.412Z,0.50
2018-03-25T10:36:05.978Z,0.40
2018-03-25T10:38:33.608Z,0.40
2018-03-25T10:41:01.227Z,0.40
2018-03-25T10:43:29.468Z,0.40
2018-03-25T10:45:57.080Z,0.70
2018-03-25T10:48:24.661Z,0.37
2018-03-25T10:50:52.318Z,0.50
2018-03-25T10:53:19.933Z,0.50
2018-03-25T10:55:48.392Z,0.53
2018-03-25T10:58:16.035Z,0.50
2018-03-25T11:00:43.671Z,0.50
2018-03-25T11:03:11.887Z,0.50
2018-03-25T11:05:39.583Z,0.50
2018-03-25T11:08:08.011Z,0.53
2018-03-25T11:10:35.699Z,0.40
2018-03-25T11:13:03.330Z,0.50
2018-03-25T11:15:30.899Z,0.40
2018-03-25T11:17:58.501Z,0.60
2018-03-25T11:20:26.844Z,0.53
2018-03-25T11:22:54.447Z,0.50
2018-03-25T11:25:22.022Z,0.50
2018-03-25T11:27:50.018Z,0.60
2018-03-25T11:30:17.671Z,0.50
2018-03-25T11:32:45.308Z,0.60
2018-03-25T11:35:57.453Z,0.50
2018-03-25T11:38:25.027Z,0.50
2018-03-25T11:40:52.654Z,0.50
2018-03-25T11:43:20.332Z,0.57
2018-03-25T11:45:47.924Z,0.70
2018-03-25T11:48:16.283Z,0.47
2018-03-25T11:50:44.694Z,0.60
2018-03-25T11:53:12.385Z,0.60
2018-03-25T11:55:40.079Z,0.50
2018-03-25T11:58:07.810Z,0.60
2018-03-25T12:00:35.385Z,0.57
2018-03-25T12:03:03.116Z,0.60
2018-03-25T12:05:31.708Z,0.50
2018-03-25T12:07:59.940Z,0.60
2018-03-25T12:10:28.335Z,0.30
2018-03-25T12:12:56.112Z,0.50
2018-03-25T12:15:23.778Z,0.60
2018-03-25T12:17:51.383Z,0.50
2018-03-25T12:20:19.751Z,0.50
2018-03-25T12:22:47.716Z,0.60
2018-03-25T12:25:15.699Z,0.50
2018-03-25T12:27:44.143Z,0.70
2018-03-25T12:30:12.716Z,0.60
2018-03-25T12:32:40.674Z,0.50
2018-03-25T12:35:08.604Z,0.80
2018-03-25T12:37:36.302Z,0.70
2018-03-25T12:40:04.167Z,0.40
2018-03-25T12:42:31.823Z,0.40
2018-03-25T12:45:00.832Z,0.60
2018-03-25T12:47:28.425Z,0.60
2018-03-25T12:49:56.040Z,0.77
2018-03-25T12:52:23.680Z,0.40
2018-03-25T12:54:51.315Z,0.53
2018-03-25T12:57:19.755Z,0.60
2018-03-25T12:59:47.392Z,0.60
2018-03-25T13:02:15.775Z,0.37
2018-03-25T13:04:44.396Z,0.40
2018-03-25T13:07:14.464Z,0.50
2018-03-25T13:09:43.034Z,0.50
2018-03-25T13:12:10.634Z,0.50
2018-03-25T13:14:39.800Z,0.70
2018-03-25T13:17:09.152Z,0.50
2018-03-25T13:19:38.604Z,0.50
2018-03-25T13:22:07.404Z,0.50
2018-03-25T13:24:37.563Z,0.40
2018-03-25T13:27:06.189Z,0.60
2018-03-25T13:29:34.569Z,0.40
2018-03-25T13:32:04.014Z,0.53
2018-03-25T13:34:32.292Z,0.60
2018-03-25T13:37:01.541Z,0.60
2018-03-25T13:39:31.166Z,0.50
2018-03-25T13:41:59.111Z,0.40
2018-03-25T13:44:28.527Z,0.40
2018-03-25T13:46:57.747Z,0.50
2018-03-25T13:49:27.820Z,0.50
2018-03-25T13:51:56.410Z,0.40
2018-03-25T13:54:25.057Z,0.50
2018-03-25T13:56:54.247Z,0.50
2018-03-25T13:59:22.635Z,0.40
2018-03-25T14:01:52.535Z,0.40
2018-03-25T14:04:21.799Z,0.50
2018-03-25T14:06:49.431Z,0.50
2018-03-25T14:09:18.019Z,0.50
2018-03-25T14:11:47.803Z,0.50
2018-03-25T14:14:16.160Z,0.60
2018-03-25T14:16:44.546Z,0.57
2018-03-25T14:19:12.878Z,0.40
2018-03-25T14:21:41.643Z,0.40
2018-03-25T14:24:10.759Z,0.80
2018-03-25T14:26:39.021Z,0.40
2018-03-25T14:29:07.051Z,0.60
2018-03-25T14:31:35.181Z,0.53
2018-03-25T14:34:05.431Z,0.47
2018-03-25T14:36:33.201Z,0.53
2018-03-25T14:39:01.300Z,0.40
2018-03-25T14:41:29.006Z,0.60
2018-03-25T14:43:58.261Z,0.50
2018-03-25T14:46:25.936Z,0.40
2018-03-25T14:48:53.636Z,0.70
2018-03-25T14:51:21.213Z,0.60
2018-03-25T14:53:49.795Z,0.60
2018-03-25T14:56:17.522Z,0.50
2018-03-25T14:58:45.193Z,0.50
2018-03-25T15:01:13.603Z,0.30
2018-03-25T15:03:41.369Z,0.43
2018-03-25T15:06:08.983Z,0.60
2018-03-25T15:08:38.523Z,0.60
2018-03-25T15:11:06.142Z,0.70
2018-03-25T15:13:34.546Z,0.80
2018-03-25T15:18:36.257Z,0.70
2018-03-25T15:21:04.238Z,0.60
2018-03-25T15:23:32.630Z,0.60
2018-03-25T15:26:00.449Z,0.60
2018-03-25T15:28:28.699Z,0.60
2018-03-25T15:30:56.311Z,1.30
2018-03-25T15:33:23.890Z,1.77
2018-03-25T15:35:52.033Z,2.03
2018-03-25T15:38:19.680Z,1.90
2018-03-25T15:40:47.347Z,1.90
2018-03-25T15:43:14.911Z,1.63
2018-03-25T15:45:42.886Z,1.90
2018-03-25T15:48:11.414Z,1.90
2018-03-25T15:50:39.806Z,1.77
2018-03-25T15:53:07.409Z,1.80
2018-03-25T15:55:36.141Z,2.00
2018-03-25T15:58:05.964Z,2.30
2018-03-25T16:00:33.674Z,1.93
2018-03-25T16:03:01.322Z,1.73
2018-03-25T16:05:29.087Z,1.93
2018-03-25T16:07:56.736Z,1.93
2018-03-25T16:10:24.459Z,2.20
2018-03-25T16:12:52.975Z,2.10
2018-03-25T16:15:21.599Z,2.10
2018-03-25T16:17:49.532Z,2.30
2018-03-25T16:20:18.448Z,1.90
2018-03-25T16:22:47.050Z,2.00
2018-03-25T16:25:16.788Z,2.17
2018-03-25T16:27:44.393Z,1.77
2018-03-25T16:30:12.059Z,2.20
2018-03-25T16:32:39.657Z,1.70
2018-03-25T16:35:07.321Z,1.97
2018-03-25T16:37:34.944Z,2.13
2018-03-25T16:40:02.545Z,2.20
2018-03-25T16:42:30.158Z,1.80
2018-03-25T16:44:58.533Z,1.97
2018-03-25T16:47:26.144Z,2.37
2018-03-25T16:49:53.732Z,2.00
2018-03-25T16:52:21.301Z,1.77
2018-03-25T16:54:48.881Z,1.97
2018-03-25T16:57:17.213Z,2.20
2018-03-25T16:59:44.790Z,1.80
2018-03-25T17:02:13.129Z,2.23
2018-03-25T17:04:40.711Z,2.40
2018-03-25T17:07:09.046Z,2.10
2018-03-25T17:09:36.626Z,2.13
2018-03-25T17:12:04.196Z,1.77
2018-03-25T17:14:31.766Z,2.00
2018-03-25T17:16:59.355Z,1.93
2018-03-25T17:19:27.697Z,1.90
2018-03-25T17:21:55.379Z,1.73
2018-03-25T17:24:22.964Z,2.00
2018-03-25T17:26:51.289Z,2.20
2018-03-25T17:29:18.885Z,1.90
2018-03-25T17:31:47.903Z,2.13
2018-03-25T17:34:15.950Z,2.07
2018-03-25T17:36:45.272Z,1.57
2018-03-25T17:39:16.697Z,1.80
2018-03-25T17:41:46.031Z,2.03
2018-03-25T17:44:14.834Z,2.10
2018-03-25T17:46:43.244Z,1.83
2018-03-25T17:49:10.818Z,2.00
2018-03-25T17:51:38.618Z,1.70
2018-03-25T17:54:06.212Z,2.00
2018-03-25T17:56:33.860Z,1.50
2018-03-25T17:59:01.435Z,1.83
2018-03-25T18:01:29.027Z,1.93
2018-03-25T18:03:57.363Z,1.97
2018-03-25T18:06:24.966Z,1.83
2018-03-25T18:08:53.387Z,1.90
2018-03-25T18:11:20.986Z,1.77
2018-03-25T18:13:48.900Z,2.03
2018-03-25T18:16:16.484Z,1.77
2018-03-25T18:18:44.045Z,1.90
2018-03-25T18:21:11.630Z,1.63
2018-03-25T18:23:39.951Z,1.70
2018-03-25T18:26:07.594Z,1.70
2018-03-25T18:28:36.576Z,1.60
2018-03-25T18:31:05.595Z,2.00
2018-03-25T18:33:33.463Z,2.00
2018-03-25T18:36:02.553Z,1.90
2018-03-25T18:38:30.230Z,1.83
2018-03-25T18:40:57.890Z,1.77
2018-03-25T18:43:25.452Z,1.50
2018-03-25T18:45:53.040Z,1.77
2018-03-25T18:48:20.616Z,2.00
2018-03-25T18:50:49.011Z,1.80
2018-03-25T18:53:16.619Z,1.57
2018-03-25T18:55:44.243Z,1.77
2018-03-25T18:58:12.441Z,1.60
2018-03-25T19:00:40.547Z,1.73
2018-03-25T19:03:08.899Z,1.57
2018-03-25T19:05:42.427Z,1.50
2018-03-25T19:08:11.275Z,1.57
2018-03-25T19:10:40.123Z,1.70
2018-03-25T19:13:07.758Z,1.80
2018-03-25T19:15:35.375Z,1.50
2018-03-25T19:18:02.936Z,1.37
2018-03-25T19:20:30.564Z,1.60
2018-03-25T19:22:58.219Z,1.57
2018-03-25T19:25:25.875Z,1.70
2018-03-25T19:27:53.495Z,1.57
2018-03-25T19:30:21.157Z,1.50
2018-03-25T19:32:49.573Z,1.30
2018-03-25T19:35:17.252Z,1.53
2018-03-25T19:37:44.849Z,1.20
2018-03-25T19:40:13.297Z,1.20
2018-03-25T19:42:40.964Z,1.40
2018-03-25T19:45:08.684Z,1.40
2018-03-25T19:47:36.334Z,1.50
2018-03-25T19:50:04.673Z,1.40
2018-03-25T19:52:32.369Z,1.40
2018-03-25T19:55:00.731Z,1.70
2018-03-25T19:57:28.446Z,1.60
2018-03-25T19:59:56.158Z,1.23
2018-03-25T20:02:24.726Z,1.40
2018-03-25T20:04:53.104Z,1.50
2018-03-25T20:07:20.711Z,1.60
2018-03-25T20:09:48.405Z,1.30
2018-03-25T20:12:16.057Z,1.57
2018-03-25T20:14:43.685Z,1.50
2018-03-25T20:17:11.569Z,1.57
2018-03-25T20:19:39.447Z,1.30
2018-03-25T20:22:07.034Z,1.40
2018-03-25T20:24:35.396Z,1.23
2018-03-25T20:27:03.064Z,1.47
2018-03-25T20:29:32.942Z,1.17
2018-03-25T20:32:00.659Z,1.17
2018-03-25T20:34:29.039Z,1.40
2018-03-25T20:36:57.394Z,1.40
2018-03-25T20:39:24.996Z,1.40
2018-03-25T20:41:52.686Z,1.50
2018-03-25T20:44:20.262Z,1.13
2018-03-25T20:46:48.548Z,1.10
2018-03-25T20:49:16.289Z,1.17
2018-03-25T20:51:44.155Z,1.33
2018-03-25T20:54:11.791Z,1.30
2018-03-25T20:56:39.628Z,1.30
2018-03-25T20:59:07.209Z,1.50
2018-03-25T21:01:34.812Z,1.20
2018-03-25T21:04:02.420Z,1.20
2018-03-25T21:06:30.442Z,1.30
2018-03-25T21:08:58.048Z,1.37
2018-03-25T21:11:25.672Z,1.20
2018-03-25T21:13:54.869Z,1.10
2018-03-25T21:16:23.245Z,1.30
2018-03-25T21:18:51.587Z,1.40
2018-03-25T21:21:19.184Z,1.27
2018-03-25T21:23:47.576Z,1.27
2018-03-25T21:26:15.968Z,1.67
2018-03-25T21:28:43.562Z,1.10
2018-03-25T21:31:11.234Z,1.40
2018-03-25T21:33:39.009Z,1.50
2018-03-25T21:36:06.654Z,1.40
2018-03-25T21:38:34.352Z,1.30
2018-03-25T21:41:02.807Z,1.10
2018-03-25T21:43:31.175Z,1.30
2018-03-25T21:45:58.828Z,1.57
2018-03-25T21:48:26.456Z,1.07
2018-03-25T21:50:54.031Z,1.40
2018-03-25T21:53:21.639Z,1.40
2018-03-25T21:55:49.988Z,1.40
2018-03-25T21:58:17.592Z,1.33
2018-03-25T22:00:45.222Z,1.47
2018-03-25T22:03:12.847Z,1.07
2018-03-25T22:05:40.416Z,1.10
2018-03-25T22:08:08.978Z,1.30
2018-03-25T22:10:36.766Z,1.20
2018-03-25T22:13:04.354Z,1.40
2018-03-25T22:15:32.721Z,1.10
2018-03-25T22:18:01.090Z,1.20
2018-03-25T22:20:28.824Z,1.27
2018-03-25T22:22:56.423Z,1.03
2018-03-25T22:25:26.530Z,1.30
2018-03-25T22:27:55.011Z,1.10
2018-03-25T22:30:23.294Z,1.10
2018-03-25T22:32:50.984Z,1.23
2018-03-25T22:35:18.590Z,1.30
2018-03-25T22:37:46.434Z,1.00
2018-03-25T22:40:14.911Z,1.13
2018-03-25T22:42:44.475Z,1.30
2018-03-25T22:45:15.411Z,1.40
2018-03-25T22:47:43.110Z,1.33
2018-03-25T22:50:11.709Z,1.20
2018-03-25T22:52:41.110Z,1.60
2018-03-25T22:55:09.774Z,1.60
2018-03-25T22:57:39.486Z,1.10
2018-03-25T23:00:07.629Z,1.13
2018-03-25T23:02:36.131Z,1.20
2018-03-25T23:05:04.272Z,1.20
2018-03-25T23:07:33.048Z,1.30
2018-03-25T23:10:01.770Z,1.03
2018-03-25T23:12:30.664Z,1.27
2018-03-25T23:15:01.377Z,1.33
2018-03-25T23:17:29.772Z,1.20
2018-03-25T23:19:58.870Z,1.40
2018-03-25T23:22:27.940Z,1.07
2018-03-25T23:24:57.014Z,1.10
2018-03-25T23:27:25.607Z,1.27
2018-03-25T23:29:55.695Z,1.70
2018-03-25T23:32:24.895Z,1.00
2018-03-25T23:34:54.244Z,1.10
2018-03-25T23:37:22.626Z,1.20
2018-03-25T23:39:51.934Z,1.30
2018-03-25T23:42:21.522Z,1.27
2018-03-25T23:44:51.291Z,1.10
2018-03-25T23:47:20.475Z,1.10
2018-03-25T23:49:49.220Z,1.40
2018-03-25T23:52:17.630Z,1.10
2018-03-25T23:54:46.226Z,1.00
2018-03-25T23:57:14.658Z,0.97
2018-03-25T23:59:43.879Z,1.17
